sensor_id;sensor_type;location;lat;lon;timestamp;pressure;altitude;pressure_sealevel;temperature;humidity
11621;BME280;5866;49.094;11.900;2024-02-26T00:00:44;94617.28;;;5.58;100.00
11621;BME280;5866;49.094;11.900;2024-02-26T00:03:13;94618.84;;;5.76;100.00
11621;BME280;5866;49.094;11.900;2024-02-26T00:05:42;94616.84;;;5.86;100.00
11621;BME280;5866;49.094;11.900;2024-02-26T00:08:10;94613.03;;;5.49;100.00
11621;BME280;5866;49.094;11.900;2024-02-26T00:10:37;94617.25;;;5.12;100.00
11621;BME280;5866;49.094;11.900;2024-02-26T00:13:05;94616.41;;;5.27;100.00
11621;BME280;5866;49.094;11.900;2024-02-26T00:15:32;94624.47;;;5.18;100.00
11621;BME280;5866;49.094;11.900;2024-02-26T00:18:01;94612.03;;;5.58;100.00
11621;BME280;5866;49.094;11.900;2024-02-26T00:20:29;94612.13;;;5.26;100.00
11621;BME280;5866;49.094;11.900;2024-02-26T00:22:57;94614.75;;;5.26;100.00
11621;BME280;5866;49.094;11.900;2024-02-26T00:25:25;94619.25;;;5.56;100.00
11621;BME280;5866;49.094;11.900;2024-02-26T00:27:52;94613.97;;;5.64;100.00
11621;BME280;5866;49.094;11.900;2024-02-26T00:30:20;94606.94;;;5.57;100.00
11621;BME280;5866;49.094;11.900;2024-02-26T00:32:46;94608.88;;;5.16;100.00
11621;BME280;5866;49.094;11.900;2024-02-26T00:35:14;94611.81;;;5.29;100.00
11621;BME280;5866;49.094;11.900;2024-02-26T00:37:43;94614.59;;;5.67;100.00
11621;BME280;5866;49.094;11.900;2024-02-26T00:40:12;94617.53;;;5.33;100.00
11621;BME280;5866;49.094;11.900;2024-02-26T00:42:40;94619.31;;;5.40;100.00
11621;BME280;5866;49.094;11.900;2024-02-26T00:45:11;94620.63;;;5.36;100.00
11621;BME280;5866;49.094;11.900;2024-02-26T00:47:39;94609.25;;;4.97;100.00
11621;BME280;5866;49.094;11.900;2024-02-26T00:50:08;94607.25;;;5.07;100.00
11621;BME280;5866;49.094;11.900;2024-02-26T00:52:36;94597.78;;;4.98;100.00
11621;BME280;5866;49.094;11.900;2024-02-26T00:55:04;94605.50;;;4.92;100.00
11621;BME280;5866;49.094;11.900;2024-02-26T00:57:33;94597.50;;;5.24;100.00
11621;BME280;5866;49.094;11.900;2024-02-26T01:00:01;94604.22;;;5.34;100.00
11621;BME280;5866;49.094;11.900;2024-02-26T01:02:29;94600.34;;;5.14;100.00
11621;BME280;5866;49.094;11.900;2024-02-26T01:04:57;94590.41;;;4.86;100.00
11621;BME280;5866;49.094;11.900;2024-02-26T01:07:25;94598.53;;;5.15;100.00
11621;BME280;5866;49.094;11.900;2024-02-26T01:09:52;94606.44;;;4.99;100.00
11621;BME280;5866;49.094;11.900;2024-02-26T01:12:19;94604.28;;;5.18;100.00
11621;BME280;5866;49.094;11.900;2024-02-26T01:14:48;94604.69;;;5.46;100.00
11621;BME280;5866;49.094;11.900;2024-02-26T01:17:16;94595.31;;;5.43;100.00
11621;BME280;5866;49.094;11.900;2024-02-26T01:19:44;94600.03;;;5.56;100.00
11621;BME280;5866;49.094;11.900;2024-02-26T01:22:12;94600.13;;;5.71;100.00
11621;BME280;5866;49.094;11.900;2024-02-26T01:24:39;94592.91;;;5.26;100.00
11621;BME280;5866;49.094;11.900;2024-02-26T01:27:07;94591.22;;;4.94;100.00
11621;BME280;5866;49.094;11.900;2024-02-26T01:29:35;94596.63;;;4.93;100.00
11621;BME280;5866;49.094;11.900;2024-02-26T01:32:05;94598.72;;;5.05;100.00
11621;BME280;5866;49.094;11.900;2024-02-26T01:34:32;94594.38;;;4.81;100.00
11621;BME280;5866;49.094;11.900;2024-02-26T01:37:00;94606.53;;;4.66;100.00
11621;BME280;5866;49.094;11.900;2024-02-26T01:39:28;94598.00;;;4.56;100.00
11621;BME280;5866;49.094;11.900;2024-02-26T01:41:56;94601.44;;;4.65;100.00
11621;BME280;5866;49.094;11.900;2024-02-26T01:44:25;94607.69;;;4.56;100.00
11621;BME280;5866;49.094;11.900;2024-02-26T01:46:53;94609.31;;;4.57;100.00
11621;BME280;5866;49.094;11.900;2024-02-26T01:49:22;94609.47;;;4.55;100.00
11621;BME280;5866;49.094;11.900;2024-02-26T01:51:50;94616.84;;;4.36;100.00
11621;BME280;5866;49.094;11.900;2024-02-26T01:54:18;94612.91;;;4.24;100.00
11621;BME280;5866;49.094;11.900;2024-02-26T01:56:46;94606.59;;;3.68;100.00
11621;BME280;5866;49.094;11.900;2024-02-26T01:59:14;94608.03;;;3.63;100.00
11621;BME280;5866;49.094;11.900;2024-02-26T02:01:44;94602.81;;;3.63;100.00
11621;BME280;5866;49.094;11.900;2024-02-26T02:04:12;94609.72;;;3.72;100.00
11621;BME280;5866;49.094;11.900;2024-02-26T02:06:43;94608.31;;;3.93;100.00
11621;BME280;5866;49.094;11.900;2024-02-26T02:09:13;94599.84;;;3.58;100.00
11621;BME280;5866;49.094;11.900;2024-02-26T02:11:41;94591.19;;;3.65;100.00
11621;BME280;5866;49.094;11.900;2024-02-26T02:14:08;94595.25;;;3.52;100.00
11621;BME280;5866;49.094;11.900;2024-02-26T02:16:36;94603.94;;;3.60;100.00
11621;BME280;5866;49.094;11.900;2024-02-26T02:19:04;94603.38;;;3.90;100.00
11621;BME280;5866;49.094;11.900;2024-02-26T02:21:33;94600.56;;;3.92;100.00
11621;BME280;5866;49.094;11.900;2024-02-26T02:24:00;94594.34;;;3.93;100.00
11621;BME280;5866;49.094;11.900;2024-02-26T02:26:28;94599.69;;;3.59;100.00
11621;BME280;5866;49.094;11.900;2024-02-26T02:28:56;94592.47;;;3.53;100.00
11621;BME280;5866;49.094;11.900;2024-02-26T02:31:24;94583.66;;;3.62;100.00
11621;BME280;5866;49.094;11.900;2024-02-26T02:33:51;94585.28;;;3.63;100.00
11621;BME280;5866;49.094;11.900;2024-02-26T02:36:19;94584.88;;;3.42;100.00
11621;BME280;5866;49.094;11.900;2024-02-26T02:38:51;94586.25;;;3.12;100.00
11621;BME280;5866;49.094;11.900;2024-02-26T02:41:19;94580.09;;;2.96;100.00
11621;BME280;5866;49.094;11.900;2024-02-26T02:43:48;94579.41;;;3.19;100.00
11621;BME280;5866;49.094;11.900;2024-02-26T02:46:15;94575.31;;;3.25;100.00
11621;BME280;5866;49.094;11.900;2024-02-26T02:48:43;94574.38;;;3.26;100.00
11621;BME280;5866;49.094;11.900;2024-02-26T02:51:11;94574.59;;;3.07;100.00
11621;BME280;5866;49.094;11.900;2024-02-26T02:53:38;94570.31;;;3.06;100.00
11621;BME280;5866;49.094;11.900;2024-02-26T02:56:07;94567.88;;;2.71;100.00
11621;BME280;5866;49.094;11.900;2024-02-26T02:58:35;94567.47;;;2.58;100.00
11621;BME280;5866;49.094;11.900;2024-02-26T03:01:03;94574.50;;;2.57;100.00
11621;BME280;5866;49.094;11.900;2024-02-26T03:03:30;94575.06;;;2.69;100.00
11621;BME280;5866;49.094;11.900;2024-02-26T03:05:58;94577.41;;;2.54;100.00
11621;BME280;5866;49.094;11.900;2024-02-26T03:08:26;94582.41;;;2.65;100.00
11621;BME280;5866;49.094;11.900;2024-02-26T03:10:53;94586.13;;;2.63;100.00
11621;BME280;5866;49.094;11.900;2024-02-26T03:13:22;94587.75;;;2.89;100.00
11621;BME280;5866;49.094;11.900;2024-02-26T03:15:50;94593.06;;;2.03;100.00
11621;BME280;5866;49.094;11.900;2024-02-26T03:18:18;94587.06;;;2.28;100.00
11621;BME280;5866;49.094;11.900;2024-02-26T03:20:45;94584.97;;;1.79;100.00
11621;BME280;5866;49.094;11.900;2024-02-26T03:23:13;94578.03;;;1.87;100.00
11621;BME280;5866;49.094;11.900;2024-02-26T03:25:44;94569.59;;;2.11;100.00
11621;BME280;5866;49.094;11.900;2024-02-26T03:28:12;94571.97;;;2.73;100.00
11621;BME280;5866;49.094;11.900;2024-02-26T03:30:41;94574.16;;;1.91;100.00
11621;BME280;5866;49.094;11.900;2024-02-26T03:33:09;94575.28;;;1.89;100.00
11621;BME280;5866;49.094;11.900;2024-02-26T03:35:37;94579.81;;;1.51;100.00
11621;BME280;5866;49.094;11.900;2024-02-26T03:38:05;94586.66;;;2.40;100.00
11621;BME280;5866;49.094;11.900;2024-02-26T03:40:32;94578.13;;;2.90;100.00
11621;BME280;5866;49.094;11.900;2024-02-26T03:42:59;94585.72;;;2.75;100.00
11621;BME280;5866;49.094;11.900;2024-02-26T03:45:27;94577.75;;;1.90;100.00
11621;BME280;5866;49.094;11.900;2024-02-26T03:47:56;94570.56;;;2.10;100.00
11621;BME280;5866;49.094;11.900;2024-02-26T03:50:24;94576.00;;;2.16;100.00
11621;BME280;5866;49.094;11.900;2024-02-26T03:52:51;94562.00;;;1.65;100.00
11621;BME280;5866;49.094;11.900;2024-02-26T03:55:20;94567.81;;;1.14;100.00
11621;BME280;5866;49.094;11.900;2024-02-26T03:57:51;94571.31;;;1.49;100.00
11621;BME280;5866;49.094;11.900;2024-02-26T04:00:19;94566.38;;;1.99;100.00
11621;BME280;5866;49.094;11.900;2024-02-26T04:02:49;94568.06;;;2.52;100.00
11621;BME280;5866;49.094;11.900;2024-02-26T04:05:18;94556.81;;;2.51;100.00
11621;BME280;5866;49.094;11.900;2024-02-26T04:07:46;94564.31;;;2.28;100.00
11621;BME280;5866;49.094;11.900;2024-02-26T04:10:13;94553.00;;;2.71;100.00
11621;BME280;5866;49.094;11.900;2024-02-26T04:12:42;94564.97;;;2.30;100.00
11621;BME280;5866;49.094;11.900;2024-02-26T04:15:10;94566.53;;;2.15;100.00
11621;BME280;5866;49.094;11.900;2024-02-26T04:17:38;94563.47;;;2.46;100.00
11621;BME280;5866;49.094;11.900;2024-02-26T04:20:07;94571.09;;;2.13;100.00
11621;BME280;5866;49.094;11.900;2024-02-26T04:22:37;94555.72;;;1.57;100.00
11621;BME280;5866;49.094;11.900;2024-02-26T04:25:05;94555.78;;;1.83;100.00
11621;BME280;5866;49.094;11.900;2024-02-26T04:27:33;94561.91;;;1.92;100.00
11621;BME280;5866;49.094;11.900;2024-02-26T04:30:00;94556.56;;;2.19;100.00
11621;BME280;5866;49.094;11.900;2024-02-26T04:32:28;94556.34;;;2.12;100.00
11621;BME280;5866;49.094;11.900;2024-02-26T04:34:56;94564.91;;;2.40;100.00
11621;BME280;5866;49.094;11.900;2024-02-26T04:37:24;94568.66;;;1.59;100.00
11621;BME280;5866;49.094;11.900;2024-02-26T04:39:59;94566.25;;;1.48;100.00
11621;BME280;5866;49.094;11.900;2024-02-26T04:42:27;94573.94;;;1.85;100.00
11621;BME280;5866;49.094;11.900;2024-02-26T04:44:55;94574.59;;;2.04;100.00
11621;BME280;5866;49.094;11.900;2024-02-26T04:47:23;94569.75;;;1.92;100.00
11621;BME280;5866;49.094;11.900;2024-02-26T04:49:51;94578.66;;;1.81;100.00
11621;BME280;5866;49.094;11.900;2024-02-26T04:52:19;94578.25;;;1.76;100.00
11621;BME280;5866;49.094;11.900;2024-02-26T04:54:46;94574.38;;;1.80;100.00
11621;BME280;5866;49.094;11.900;2024-02-26T04:57:15;94581.53;;;1.43;100.00
11621;BME280;5866;49.094;11.900;2024-02-26T04:59:45;94582.06;;;1.99;100.00
11621;BME280;5866;49.094;11.900;2024-02-26T05:02:13;94578.13;;;2.64;100.00
11621;BME280;5866;49.094;11.900;2024-02-26T05:04:41;94588.00;;;3.04;100.00
11621;BME280;5866;49.094;11.900;2024-02-26T05:07:09;94591.88;;;3.26;100.00
11621;BME280;5866;49.094;11.900;2024-02-26T05:09:37;94595.16;;;2.94;100.00
11621;BME280;5866;49.094;11.900;2024-02-26T05:12:05;94599.34;;;2.53;100.00
11621;BME280;5866;49.094;11.900;2024-02-26T05:14:34;94604.00;;;2.67;100.00
11621;BME280;5866;49.094;11.900;2024-02-26T05:17:01;94601.13;;;2.53;100.00
11621;BME280;5866;49.094;11.900;2024-02-26T05:19:29;94601.81;;;2.37;100.00
11621;BME280;5866;49.094;11.900;2024-02-26T05:21:57;94606.03;;;3.07;100.00
11621;BME280;5866;49.094;11.900;2024-02-26T05:24:24;94604.53;;;3.38;100.00
11621;BME280;5866;49.094;11.900;2024-02-26T05:26:53;94601.00;;;3.55;100.00
11621;BME280;5866;49.094;11.900;2024-02-26T05:29:21;94592.22;;;3.31;100.00
11621;BME280;5866;49.094;11.900;2024-02-26T05:31:50;94595.00;;;3.29;100.00
11621;BME280;5866;49.094;11.900;2024-02-26T05:34:17;94603.59;;;3.47;100.00
11621;BME280;5866;49.094;11.900;2024-02-26T05:36:45;94599.66;;;3.51;100.00
11621;BME280;5866;49.094;11.900;2024-02-26T05:39:13;94595.84;;;3.38;100.00
11621;BME280;5866;49.094;11.900;2024-02-26T05:41:45;94603.69;;;3.30;100.00
11621;BME280;5866;49.094;11.900;2024-02-26T05:44:12;94601.16;;;3.12;100.00
11621;BME280;5866;49.094;11.900;2024-02-26T05:46:41;94596.66;;;2.71;100.00
11621;BME280;5866;49.094;11.900;2024-02-26T05:49:10;94606.75;;;1.97;100.00
11621;BME280;5866;49.094;11.900;2024-02-26T05:51:38;94595.66;;;1.50;100.00
11621;BME280;5866;49.094;11.900;2024-02-26T05:54:05;94591.41;;;1.22;100.00
11621;BME280;5866;49.094;11.900;2024-02-26T05:56:34;94589.22;;;1.62;100.00
11621;BME280;5866;49.094;11.900;2024-02-26T05:59:02;94602.81;;;1.21;100.00
11621;BME280;5866;49.094;11.900;2024-02-26T06:01:30;94601.03;;;1.48;100.00
11621;BME280;5866;49.094;11.900;2024-02-26T06:03:58;94599.38;;;2.35;100.00
11621;BME280;5866;49.094;11.900;2024-02-26T06:06:27;94605.38;;;2.54;100.00
11621;BME280;5866;49.094;11.900;2024-02-26T06:08:55;94600.91;;;2.46;100.00
11621;BME280;5866;49.094;11.900;2024-02-26T06:11:22;94584.81;;;1.18;100.00
11621;BME280;5866;49.094;11.900;2024-02-26T06:13:50;94589.22;;;1.62;100.00
11621;BME280;5866;49.094;11.900;2024-02-26T06:16:18;94603.44;;;1.77;100.00
11621;BME280;5866;49.094;11.900;2024-02-26T06:18:45;94594.75;;;2.12;100.00
11621;BME280;5866;49.094;11.900;2024-02-26T06:21:13;94601.03;;;1.21;100.00
11621;BME280;5866;49.094;11.900;2024-02-26T06:23:42;94596.94;;;1.19;100.00
11621;BME280;5866;49.094;11.900;2024-02-26T06:26:10;94607.22;;;0.93;100.00
11621;BME280;5866;49.094;11.900;2024-02-26T06:28:37;94619.59;;;1.45;100.00
11621;BME280;5866;49.094;11.900;2024-02-26T06:31:07;94626.28;;;1.93;100.00
11621;BME280;5866;49.094;11.900;2024-02-26T06:33:35;94629.91;;;2.09;100.00
11621;BME280;5866;49.094;11.900;2024-02-26T06:36:03;94627.19;;;2.36;100.00
11621;BME280;5866;49.094;11.900;2024-02-26T06:38:31;94624.13;;;2.06;100.00
11621;BME280;5866;49.094;11.900;2024-02-26T06:41:00;94637.50;;;1.85;100.00
11621;BME280;5866;49.094;11.900;2024-02-26T06:43:29;94639.44;;;1.83;100.00
11621;BME280;5866;49.094;11.900;2024-02-26T06:45:57;94644.03;;;2.60;100.00
11621;BME280;5866;49.094;11.900;2024-02-26T06:48:24;94652.50;;;2.36;100.00
11621;BME280;5866;49.094;11.900;2024-02-26T06:50:52;94655.03;;;2.89;100.00
11621;BME280;5866;49.094;11.900;2024-02-26T06:53:20;94648.84;;;3.57;100.00
11621;BME280;5866;49.094;11.900;2024-02-26T06:55:48;94658.94;;;3.52;100.00
11621;BME280;5866;49.094;11.900;2024-02-26T06:58:18;94652.94;;;3.26;100.00
11621;BME280;5866;49.094;11.900;2024-02-26T07:00:45;94654.34;;;3.46;100.00
11621;BME280;5866;49.094;11.900;2024-02-26T07:03:13;94654.53;;;3.53;100.00
11621;BME280;5866;49.094;11.900;2024-02-26T07:05:41;94660.16;;;3.24;100.00
11621;BME280;5866;49.094;11.900;2024-02-26T07:08:11;94658.03;;;3.61;100.00
11621;BME280;5866;49.094;11.900;2024-02-26T07:10:39;94655.53;;;4.10;100.00
11621;BME280;5866;49.094;11.900;2024-02-26T07:13:06;94664.03;;;3.95;100.00
11621;BME280;5866;49.094;11.900;2024-02-26T07:15:35;94664.25;;;4.26;100.00
11621;BME280;5866;49.094;11.900;2024-02-26T07:18:04;94663.56;;;4.00;100.00
11621;BME280;5866;49.094;11.900;2024-02-26T07:20:31;94664.44;;;4.49;100.00
11621;BME280;5866;49.094;11.900;2024-02-26T07:22:59;94668.34;;;5.01;100.00
11621;BME280;5866;49.094;11.900;2024-02-26T07:25:27;94665.50;;;5.35;100.00
11621;BME280;5866;49.094;11.900;2024-02-26T07:27:54;94675.94;;;4.72;100.00
11621;BME280;5866;49.094;11.900;2024-02-26T07:30:22;94684.13;;;4.93;100.00
11621;BME280;5866;49.094;11.900;2024-02-26T07:32:52;94677.84;;;5.26;100.00
11621;BME280;5866;49.094;11.900;2024-02-26T07:35:20;94680.50;;;5.10;100.00
11621;BME280;5866;49.094;11.900;2024-02-26T07:37:48;94689.94;;;4.07;100.00
11621;BME280;5866;49.094;11.900;2024-02-26T07:40:16;94689.13;;;5.43;100.00
11621;BME280;5866;49.094;11.900;2024-02-26T07:42:43;94691.16;;;6.49;100.00
11621;BME280;5866;49.094;11.900;2024-02-26T07:45:11;94697.03;;;5.98;100.00
11621;BME280;5866;49.094;11.900;2024-02-26T07:47:39;94690.59;;;5.53;100.00
11621;BME280;5866;49.094;11.900;2024-02-26T07:50:09;94686.03;;;5.39;100.00
11621;BME280;5866;49.094;11.900;2024-02-26T07:52:38;94689.19;;;5.82;100.00
11621;BME280;5866;49.094;11.900;2024-02-26T07:55:07;94682.91;;;5.28;100.00
11621;BME280;5866;49.094;11.900;2024-02-26T07:57:34;94690.69;;;4.89;100.00
11621;BME280;5866;49.094;11.900;2024-02-26T08:00:03;94687.66;;;5.40;100.00
11621;BME280;5866;49.094;11.900;2024-02-26T08:02:33;94697.56;;;5.14;100.00
11621;BME280;5866;49.094;11.900;2024-02-26T08:05:01;94700.22;;;4.98;100.00
11621;BME280;5866;49.094;11.900;2024-02-26T08:07:30;94700.22;;;4.74;100.00
11621;BME280;5866;49.094;11.900;2024-02-26T08:09:58;94705.50;;;4.90;100.00
11621;BME280;5866;49.094;11.900;2024-02-26T08:12:25;94701.22;;;4.65;100.00
11621;BME280;5866;49.094;11.900;2024-02-26T08:14:53;94701.53;;;5.10;100.00
11621;BME280;5866;49.094;11.900;2024-02-26T08:17:22;94704.16;;;4.78;100.00
11621;BME280;5866;49.094;11.900;2024-02-26T08:19:49;94698.91;;;5.02;100.00
11621;BME280;5866;49.094;11.900;2024-02-26T08:22:17;94701.19;;;4.97;100.00
11621;BME280;5866;49.094;11.900;2024-02-26T08:24:46;94699.75;;;5.74;100.00
11621;BME280;5866;49.094;11.900;2024-02-26T08:27:14;94701.47;;;5.50;100.00
11621;BME280;5866;49.094;11.900;2024-02-26T08:29:41;94705.47;;;5.06;100.00
11621;BME280;5866;49.094;11.900;2024-02-26T08:32:09;94697.13;;;5.74;100.00
11621;BME280;5866;49.094;11.900;2024-02-26T08:34:37;94694.66;;;6.64;100.00
11621;BME280;5866;49.094;11.900;2024-02-26T08:37:06;94689.28;;;7.03;100.00
11621;BME280;5866;49.094;11.900;2024-02-26T08:39:33;94686.22;;;6.91;100.00
11621;BME280;5866;49.094;11.900;2024-02-26T08:42:02;94687.88;;;7.44;100.00
11621;BME280;5866;49.094;11.900;2024-02-26T08:44:30;94692.63;;;7.63;100.00
11621;BME280;5866;49.094;11.900;2024-02-26T08:46:58;94693.66;;;7.77;100.00
11621;BME280;5866;49.094;11.900;2024-02-26T08:49:25;94692.34;;;7.44;100.00
11621;BME280;5866;49.094;11.900;2024-02-26T08:51:53;94691.78;;;7.34;100.00
11621;BME280;5866;49.094;11.900;2024-02-26T08:54:21;94692.00;;;7.76;100.00
11621;BME280;5866;49.094;11.900;2024-02-26T08:56:48;94697.66;;;7.73;100.00
11621;BME280;5866;49.094;11.900;2024-02-26T08:59:17;94696.94;;;7.79;99.38
11621;BME280;5866;49.094;11.900;2024-02-26T09:01:49;94702.19;;;7.50;98.14
11621;BME280;5866;49.094;11.900;2024-02-26T09:04:16;94702.66;;;7.68;98.62
11621;BME280;5866;49.094;11.900;2024-02-26T09:06:44;94702.19;;;7.50;96.73
11621;BME280;5866;49.094;11.900;2024-02-26T09:09:11;94703.38;;;7.76;93.78
11621;BME280;5866;49.094;11.900;2024-02-26T09:11:39;94687.72;;;7.89;93.93
11621;BME280;5866;49.094;11.900;2024-02-26T09:14:07;94690.63;;;7.94;92.61
11621;BME280;5866;49.094;11.900;2024-02-26T09:16:36;94700.53;;;8.07;92.60
11621;BME280;5866;49.094;11.900;2024-02-26T09:19:03;94701.38;;;8.08;91.21
11621;BME280;5866;49.094;11.900;2024-02-26T09:21:31;94705.59;;;8.23;91.10
11621;BME280;5866;49.094;11.900;2024-02-26T09:23:59;94701.81;;;8.11;89.85
11621;BME280;5866;49.094;11.900;2024-02-26T09:26:27;94699.06;;;8.19;88.98
11621;BME280;5866;49.094;11.900;2024-02-26T09:28:55;94701.34;;;8.37;92.24
11621;BME280;5866;49.094;11.900;2024-02-26T09:31:22;94703.63;;;8.61;88.99
11621;BME280;5866;49.094;11.900;2024-02-26T09:33:51;94718.19;;;8.93;85.55
11621;BME280;5866;49.094;11.900;2024-02-26T09:36:19;94703.78;;;8.38;86.36
11621;BME280;5866;49.094;11.900;2024-02-26T09:38:48;94708.25;;;9.16;84.80
11621;BME280;5866;49.094;11.900;2024-02-26T09:41:27;94715.97;;;9.38;84.32
11621;BME280;5866;49.094;11.900;2024-02-26T09:43:57;94708.47;;;10.04;78.50
11621;BME280;5866;49.094;11.900;2024-02-26T09:46:26;94701.78;;;10.49;74.94
11621;BME280;5866;49.094;11.900;2024-02-26T09:48:55;94705.94;;;10.71;72.88
11621;BME280;5866;49.094;11.900;2024-02-26T09:51:23;94706.66;;;11.32;69.80
11621;BME280;5866;49.094;11.900;2024-02-26T09:53:52;94706.44;;;11.07;68.90
11621;BME280;5866;49.094;11.900;2024-02-26T09:56:21;94712.63;;;10.60;69.21
11621;BME280;5866;49.094;11.900;2024-02-26T09:58:50;94708.09;;;10.07;73.05
11621;BME280;5866;49.094;11.900;2024-02-26T10:01:21;94718.56;;;8.68;83.12
11621;BME280;5866;49.094;11.900;2024-02-26T10:03:54;94712.09;;;8.35;90.09
11621;BME280;5866;49.094;11.900;2024-02-26T10:06:24;94710.78;;;8.60;93.29
11621;BME280;5866;49.094;11.900;2024-02-26T10:08:52;94722.78;;;8.84;92.10
11621;BME280;5866;49.094;11.900;2024-02-26T10:11:20;94725.59;;;8.26;97.58
11621;BME280;5866;49.094;11.900;2024-02-26T10:13:49;94725.56;;;8.11;99.13
11621;BME280;5866;49.094;11.900;2024-02-26T10:16:17;94726.09;;;8.21;100.00
11621;BME280;5866;49.094;11.900;2024-02-26T10:18:46;94729.03;;;8.76;92.31
11621;BME280;5866;49.094;11.900;2024-02-26T10:21:26;94729.09;;;8.47;96.68
11621;BME280;5866;49.094;11.900;2024-02-26T10:23:54;94722.56;;;8.79;92.95
11621;BME280;5866;49.094;11.900;2024-02-26T10:26:21;94728.75;;;8.71;95.18
11621;BME280;5866;49.094;11.900;2024-02-26T10:28:49;94728.28;;;8.18;98.00
11621;BME280;5866;49.094;11.900;2024-02-26T10:31:21;94730.59;;;7.77;100.00
11621;BME280;5866;49.094;11.900;2024-02-26T10:33:49;94733.88;;;7.79;100.00
11621;BME280;5866;49.094;11.900;2024-02-26T10:36:17;94734.13;;;8.13;100.00
11621;BME280;5866;49.094;11.900;2024-02-26T10:38:47;94735.06;;;8.35;100.00
11621;BME280;5866;49.094;11.900;2024-02-26T10:41:15;94732.66;;;8.75;99.11
11621;BME280;5866;49.094;11.900;2024-02-26T10:43:43;94720.56;;;8.16;99.26
11621;BME280;5866;49.094;11.900;2024-02-26T10:46:10;94724.75;;;9.18;97.69
11621;BME280;5866;49.094;11.900;2024-02-26T10:48:38;94730.41;;;9.36;87.53
11621;BME280;5866;49.094;11.900;2024-02-26T10:51:09;94722.28;;;9.99;83.53
11621;BME280;5866;49.094;11.900;2024-02-26T10:53:40;94724.22;;;10.12;80.72
11621;BME280;5866;49.094;11.900;2024-02-26T10:56:11;94720.63;;;10.19;81.57
11621;BME280;5866;49.094;11.900;2024-02-26T10:58:41;94726.69;;;10.54;79.27
11621;BME280;5866;49.094;11.900;2024-02-26T11:01:10;94727.66;;;11.07;75.84
11621;BME280;5866;49.094;11.900;2024-02-26T11:03:38;94732.19;;;11.65;71.26
11621;BME280;5866;49.094;11.900;2024-02-26T11:06:08;94729.75;;;11.83;70.29
11621;BME280;5866;49.094;11.900;2024-02-26T11:08:37;94736.28;;;11.55;69.27
11621;BME280;5866;49.094;11.900;2024-02-26T11:11:05;94727.28;;;11.36;69.94
11621;BME280;5866;49.094;11.900;2024-02-26T11:13:36;94737.84;;;11.03;73.22
11621;BME280;5866;49.094;11.900;2024-02-26T11:16:09;94727.88;;;11.25;73.76
11621;BME280;5866;49.094;11.900;2024-02-26T11:18:37;94727.31;;;11.75;70.35
11621;BME280;5866;49.094;11.900;2024-02-26T11:21:08;94720.69;;;11.06;73.70
11621;BME280;5866;49.094;11.900;2024-02-26T11:23:36;94720.75;;;11.26;70.83
11621;BME280;5866;49.094;11.900;2024-02-26T11:26:05;94729.28;;;10.95;71.63
11621;BME280;5866;49.094;11.900;2024-02-26T11:28:34;94720.72;;;11.19;71.68
11621;BME280;5866;49.094;11.900;2024-02-26T11:31:04;94722.75;;;11.10;71.43
11621;BME280;5866;49.094;11.900;2024-02-26T11:33:34;94718.84;;;11.00;72.87
11621;BME280;5866;49.094;11.900;2024-02-26T11:36:07;94721.03;;;10.64;75.52
11621;BME280;5866;49.094;11.900;2024-02-26T11:38:36;94720.94;;;9.48;82.98
11621;BME280;5866;49.094;11.900;2024-02-26T11:41:04;94716.44;;;9.76;87.15
11621;BME280;5866;49.094;11.900;2024-02-26T11:43:50;94720.47;;;10.27;81.20
11621;BME280;5866;49.094;11.900;2024-02-26T11:46:29;94717.22;;;10.99;77.45
11621;BME280;5866;49.094;11.900;2024-02-26T11:49:02;94719.53;;;11.28;72.12
11621;BME280;5866;49.094;11.900;2024-02-26T11:51:33;94711.34;;;12.02;71.02
11621;BME280;5866;49.094;11.900;2024-02-26T11:54:01;94708.09;;;12.00;67.61
11621;BME280;5866;49.094;11.900;2024-02-26T11:56:29;94702.53;;;12.14;66.57
11621;BME280;5866;49.094;11.900;2024-02-26T11:59:00;94703.16;;;11.96;66.48
11621;BME280;5866;49.094;11.900;2024-02-26T12:01:54;94710.53;;;11.81;66.83
11621;BME280;5866;49.094;11.900;2024-02-26T12:04:27;94720.13;;;11.56;67.50
11621;BME280;5866;49.094;11.900;2024-02-26T12:06:56;94722.59;;;11.58;67.22
11621;BME280;5866;49.094;11.900;2024-02-26T12:09:33;94721.59;;;11.39;69.32
11621;BME280;5866;49.094;11.900;2024-02-26T12:12:02;94724.22;;;11.59;67.59
11621;BME280;5866;49.094;11.900;2024-02-26T12:14:33;94727.19;;;12.41;65.68
11621;BME280;5866;49.094;11.900;2024-02-26T12:17:02;94735.59;;;13.26;62.16
11621;BME280;5866;49.094;11.900;2024-02-26T12:19:34;94739.72;;;13.22;60.71
11621;BME280;5866;49.094;11.900;2024-02-26T12:22:03;94742.31;;;13.04;61.60
11621;BME280;5866;49.094;11.900;2024-02-26T12:24:33;94744.63;;;12.81;61.74
11621;BME280;5866;49.094;11.900;2024-02-26T12:27:01;94738.19;;;13.39;59.75
11621;BME280;5866;49.094;11.900;2024-02-26T12:29:29;94739.56;;;13.17;59.86
11621;BME280;5866;49.094;11.900;2024-02-26T12:31:57;94742.25;;;12.60;61.17
11621;BME280;5866;49.094;11.900;2024-02-26T12:34:26;94743.59;;;12.31;63.83
11621;BME280;5866;49.094;11.900;2024-02-26T12:36:54;94736.41;;;12.89;62.56
11621;BME280;5866;49.094;11.900;2024-02-26T12:39:21;94752.09;;;13.10;60.07
11621;BME280;5866;49.094;11.900;2024-02-26T12:41:49;94738.16;;;13.46;60.07
11621;BME280;5866;49.094;11.900;2024-02-26T12:44:17;94741.41;;;13.48;58.97
11621;BME280;5866;49.094;11.900;2024-02-26T12:46:44;94755.38;;;12.48;61.77
11621;BME280;5866;49.094;11.900;2024-02-26T12:49:14;94744.13;;;12.53;62.02
11621;BME280;5866;49.094;11.900;2024-02-26T12:51:45;94746.34;;;13.44;60.75
11621;BME280;5866;49.094;11.900;2024-02-26T12:54:13;94742.88;;;13.69;58.11
11621;BME280;5866;49.094;11.900;2024-02-26T12:56:40;94748.16;;;14.00;57.47
11621;BME280;5866;49.094;11.900;2024-02-26T12:59:09;94744.50;;;14.19;56.64
11621;BME280;5866;49.094;11.900;2024-02-26T13:01:37;94742.25;;;14.16;55.65
11621;BME280;5866;49.094;11.900;2024-02-26T13:04:04;94741.44;;;14.76;54.47
11621;BME280;5866;49.094;11.900;2024-02-26T13:06:33;94735.22;;;14.46;55.11
11621;BME280;5866;49.094;11.900;2024-02-26T13:09:03;94737.22;;;14.51;54.00